createdAt,value
2023-02-13T00:03:27.519Z,10.50
2023-02-13T00:07:29.576Z,12.50
2023-02-13T00:11:31.668Z,12.20
2023-02-13T00:15:33.966Z,10.77
2023-02-13T00:19:36.026Z,11.48
2023-02-13T00:23:39.595Z,10.77
2023-02-13T00:27:41.767Z,8.95
2023-02-13T00:31:43.857Z,10.32
2023-02-13T00:35:45.928Z,10.63
2023-02-13T00:39:48.014Z,8.88
2023-02-13T00:43:50.263Z,9.93
2023-02-13T00:47:52.405Z,8.43
2023-02-13T00:51:57.152Z,9.07
2023-02-13T00:55:59.679Z,8.88
2023-02-13T01:00:01.966Z,7.78
2023-02-13T01:04:04.074Z,9.30
2023-02-13T01:08:06.449Z,8.68
2023-02-13T01:12:08.591Z,6.43
2023-02-13T01:16:11.120Z,7.68
2023-02-13T01:20:13.602Z,8.10
2023-02-13T01:24:15.694Z,8.43
2023-02-13T01:28:17.940Z,7.97
2023-02-13T01:32:20.256Z,8.43
2023-02-13T01:36:22.403Z,7.78
2023-02-13T01:40:24.445Z,8.35
2023-02-13T01:44:46.245Z,7.55
2023-02-13T01:48:53.433Z,8.98
2023-02-13T01:53:01.381Z,7.75
2023-02-13T01:57:15.029Z,8.57
2023-02-13T02:01:17.528Z,9.02
2023-02-13T02:05:24.222Z,8.45
2023-02-13T02:09:30.245Z,9.05
2023-02-13T02:13:32.461Z,9.02
2023-02-13T02:17:39.944Z,9.55
2023-02-13T02:21:42.092Z,9.00
2023-02-13T02:26:01.313Z,11.30
2023-02-13T02:30:12.782Z,9.30
2023-02-13T02:34:30.117Z,11.95
2023-02-13T02:38:51.841Z,12.13
2023-02-13T02:43:19.597Z,11.25
2023-02-13T02:48:02.541Z,11.43
2023-02-13T02:52:12.781Z,11.98
2023-02-13T02:56:23.286Z,12.15
2023-02-13T03:00:46.647Z,12.02
2023-02-13T03:05:29.849Z,13.23
2023-02-13T03:09:55.709Z,12.15
2023-02-13T03:14:01.541Z,12.93
2023-02-13T03:18:22.294Z,12.02
2023-02-13T03:22:31.543Z,13.65
2023-02-13T03:27:03.273Z,13.18
2023-02-13T03:31:13.794Z,14.70
2023-02-13T03:35:53.559Z,13.63
2023-02-13T03:40:19.286Z,14.40
2023-02-13T03:44:33.327Z,13.50
2023-02-13T03:48:57.924Z,13.52
2023-02-13T03:53:06.299Z,13.50
2023-02-13T03:57:30.858Z,14.23
2023-02-13T04:01:35.979Z,13.63
2023-02-13T04:05:43.768Z,13.82
2023-02-13T04:09:45.775Z,13.70
2023-02-13T04:14:00.523Z,11.45
2023-02-13T04:18:11.030Z,11.82
2023-02-13T04:22:13.477Z,12.82
2023-02-13T04:26:19.779Z,12.85
2023-02-13T04:30:21.943Z,12.17
2023-02-13T04:34:23.970Z,11.75
2023-02-13T04:38:26.028Z,13.18
2023-02-13T04:42:28.069Z,13.80
2023-02-13T04:46:30.435Z,14.98
2023-02-13T04:50:32.524Z,15.57
2023-02-13T04:54:34.573Z,16.92
2023-02-13T04:58:36.766Z,22.77
2023-02-13T05:02:39.701Z,14.73
2023-02-13T05:06:42.430Z,14.77
2023-02-13T05:10:44.512Z,12.18
2023-02-13T05:14:46.539Z,14.82
2023-02-13T05:18:48.547Z,15.20
2023-02-13T05:23:12.219Z,13.90
2023-02-13T05:27:14.355Z,12.77
2023-02-13T05:31:16.573Z,14.77
2023-02-13T05:35:19.264Z,14.18
2023-02-13T05:39:21.790Z,15.00
2023-02-13T05:43:23.749Z,12.98
2023-02-13T05:47:25.796Z,11.88
2023-02-13T05:51:27.871Z,13.23
2023-02-13T05:55:29.874Z,12.30
2023-02-13T05:59:31.884Z,14.88
2023-02-13T06:03:34.159Z,15.55
2023-02-13T06:07:36.226Z,13.45
2023-02-13T06:11:38.273Z,12.65
2023-02-13T06:15:40.670Z,12.40
2023-02-13T06:19:42.690Z,13.68
2023-02-13T06:23:44.865Z,12.15
2023-02-13T06:27:47.512Z,14.30
2023-02-13T06:31:49.599Z,12.63
2023-02-13T06:35:51.736Z,13.45
2023-02-13T06:39:53.802Z,14.85
2023-02-13T06:43:55.795Z,14.25
2023-02-13T06:47:57.795Z,12.32
2023-02-13T06:51:59.811Z,13.32
2023-02-13T06:56:06.264Z,12.57
2023-02-13T07:00:09.063Z,18.02
2023-02-13T07:04:11.073Z,13.75
2023-02-13T07:08:13.536Z,12.45
2023-02-13T07:12:15.570Z,14.45
2023-02-13T07:16:17.729Z,13.07
2023-02-13T07:20:19.903Z,13.35
2023-02-13T07:24:21.910Z,13.48
2023-02-13T07:28:24.001Z,14.23
2023-02-13T07:32:26.111Z,12.73
2023-02-13T07:36:28.672Z,19.88
2023-02-13T07:40:30.719Z,18.05
2023-02-13T07:44:33.025Z,14.25
2023-02-13T07:48:35.123Z,14.73
2023-02-13T07:52:37.934Z,15.50
2023-02-13T07:56:40.051Z,16.50
2023-02-13T08:00:42.122Z,14.93
2023-02-13T08:04:47.640Z,15.48
2023-02-13T08:09:09.750Z,18.05
2023-02-13T08:13:13.958Z,20.67
2023-02-13T08:17:15.955Z,20.13
2023-02-13T08:21:17.975Z,20.80
2023-02-13T08:25:20.243Z,17.80
2023-02-13T08:29:22.364Z,15.90
2023-02-13T08:33:24.995Z,14.30
2023-02-13T08:37:27.019Z,15.88
2023-02-13T08:41:29.033Z,12.68
2023-02-13T08:45:32.398Z,12.75
2023-02-13T08:49:34.451Z,12.85
2023-02-13T08:53:36.981Z,10.13
2023-02-13T08:57:39.011Z,11.70
2023-02-13T09:01:41.555Z,11.95
2023-02-13T09:05:43.878Z,13.52
2023-02-13T09:09:45.933Z,12.40
2023-02-13T09:13:48.324Z,10.40
2023-02-13T09:17:51.165Z,10.05
2023-02-13T09:21:53.195Z,9.43
2023-02-13T09:25:55.358Z,9.77
2023-02-13T09:29:57.504Z,11.23
2023-02-13T09:33:59.550Z,9.68
2023-02-13T09:38:01.755Z,10.18
2023-02-13T09:42:14.102Z,11.23
2023-02-13T09:46:20.964Z,9.23
2023-02-13T09:50:28.265Z,8.40
2023-02-13T09:58:51.910Z,8.40
2023-02-13T10:02:56.884Z,9.52
2023-02-13T10:07:40.632Z,9.63
2023-02-13T10:12:08.100Z,8.23
2023-02-13T10:16:36.892Z,9.88
2023-02-13T10:20:50.616Z,9.57
2023-02-13T10:25:13.008Z,10.23
2023-02-13T10:29:52.277Z,8.02
2023-02-13T10:34:02.686Z,8.27
2023-02-13T10:38:15.702Z,8.73
2023-02-13T10:42:43.726Z,9.20
2023-02-13T10:47:05.722Z,8.75
2023-02-13T10:51:40.437Z,9.73
2023-02-13T10:56:11.018Z,10.15
2023-02-13T11:00:18.760Z,8.73
2023-02-13T11:04:20.925Z,7.30
2023-02-13T11:08:33.430Z,7.97
2023-02-13T11:12:35.494Z,7.47
2023-02-13T11:16:46.952Z,8.55
2023-02-13T11:21:02.513Z,7.43
2023-02-13T11:25:31.759Z,9.77
2023-02-13T11:29:35.484Z,8.25
2023-02-13T11:33:37.727Z,7.85
2023-02-13T11:37:40.517Z,7.43
2023-02-13T11:41:44.731Z,8.73
2023-02-13T11:45:46.962Z,8.23
2023-02-13T11:49:49.311Z,6.93
2023-02-13T11:53:51.418Z,7.40
2023-02-13T11:58:00.415Z,7.00
2023-02-13T12:02:03.687Z,7.45
2023-02-13T12:06:08.700Z,6.60
2023-02-13T12:10:23.036Z,8.80
2023-02-13T12:14:31.587Z,6.97
2023-02-13T12:18:38.713Z,7.03
2023-02-13T12:22:48.613Z,5.97
2023-02-13T12:26:59.548Z,6.38
2023-02-13T12:31:09.221Z,7.53
2023-02-13T12:35:41.177Z,5.53
2023-02-13T12:40:15.666Z,4.60
2023-02-13T12:44:30.049Z,5.53
2023-02-13T12:48:45.218Z,5.00
2023-02-13T12:53:17.136Z,4.45
2023-02-13T12:57:47.181Z,5.20
2023-02-13T13:02:24.807Z,6.35
2023-02-13T13:06:49.289Z,4.75
2023-02-13T13:11:09.256Z,6.70
2023-02-13T13:15:21.854Z,6.35
2023-02-13T13:19:38.844Z,7.18
2023-02-13T13:24:01.030Z,5.40
2023-02-13T13:28:16.770Z,6.55
2023-02-13T13:32:21.606Z,8.32
2023-02-13T13:36:42.308Z,7.70
2023-02-13T13:40:58.167Z,6.40
2023-02-13T13:45:20.935Z,5.47
2023-02-13T13:49:48.530Z,4.55
2023-02-13T13:53:59.664Z,3.42
2023-02-13T13:58:02.008Z,4.90
2023-02-13T14:02:19.479Z,4.90
2023-02-13T14:06:28.293Z,3.65
2023-02-13T14:10:30.261Z,4.30
2023-02-13T14:14:35.296Z,3.88
2023-02-13T14:18:38.709Z,4.65
2023-02-13T14:22:41.290Z,4.75
2023-02-13T14:26:43.359Z,5.00
2023-02-13T14:30:45.536Z,6.60
2023-02-13T14:34:59.438Z,4.90
2023-02-13T14:39:15.847Z,5.35
2023-02-13T14:43:28.651Z,6.80
2023-02-13T14:47:36.316Z,5.45
2023-02-13T14:51:46.877Z,7.20
2023-02-13T14:55:56.533Z,6.32
2023-02-13T15:00:04.333Z,9.88
2023-02-13T15:04:25.923Z,5.43
2023-02-13T15:08:33.959Z,5.55
2023-02-13T15:12:37.159Z,5.03
2023-02-13T15:16:39.532Z,7.43
2023-02-13T15:20:43.364Z,6.65
2023-02-13T15:24:47.965Z,8.68
2023-02-13T15:29:27.756Z,5.63
2023-02-13T15:33:44.371Z,4.32
2023-02-13T15:37:46.380Z,6.55
2023-02-13T15:41:51.018Z,5.78
2023-02-13T15:45:53.277Z,8.27
2023-02-13T15:49:55.963Z,5.88
2023-02-13T15:54:01.705Z,6.88
2023-02-13T15:58:04.371Z,4.68
2023-02-13T16:02:15.319Z,4.70
2023-02-13T16:06:20.277Z,5.05
2023-02-13T16:10:36.483Z,4.47
2023-02-13T16:15:02.244Z,9.73
2023-02-13T16:19:04.680Z,7.43
2023-02-13T16:23:27.101Z,6.40
2023-02-13T16:27:29.276Z,4.70
2023-02-13T16:31:31.478Z,5.00
2023-02-13T16:35:37.911Z,5.22
2023-02-13T16:39:39.997Z,5.90
2023-02-13T16:43:51.641Z,5.07
2023-02-13T16:48:03.207Z,7.53
2023-02-13T16:52:16.917Z,6.65
2023-02-13T16:56:18.991Z,5.85
2023-02-13T17:00:25.577Z,8.13
2023-02-13T17:04:27.874Z,6.15
2023-02-13T17:08:33.030Z,10.07
2023-02-13T17:12:38.034Z,21.00
2023-02-13T17:16:40.107Z,33.35
2023-02-13T17:20:44.054Z,22.75
2023-02-13T17:24:46.134Z,9.65
2023-02-13T17:28:48.112Z,5.60
2023-02-13T17:32:57.341Z,7.00
2023-02-13T17:36:59.517Z,6.38
2023-02-13T17:41:01.739Z,9.57
2023-02-13T17:45:04.409Z,7.95
2023-02-13T17:49:06.445Z,8.27
2023-02-13T17:53:18.895Z,10.90
2023-02-13T17:57:20.924Z,8.32
2023-02-13T18:01:22.983Z,8.30
2023-02-13T18:05:25.570Z,7.75
2023-02-13T18:09:27.631Z,8.30
2023-02-13T18:13:29.657Z,8.15
2023-02-13T18:17:31.667Z,9.93
2023-02-13T18:21:33.688Z,8.43
2023-02-13T18:25:36.158Z,9.30
2023-02-13T18:29:38.597Z,9.63
2023-02-13T18:33:40.643Z,7.55
2023-02-13T18:37:42.761Z,12.55
2023-02-13T18:41:44.857Z,11.60
2023-02-13T18:45:47.043Z,9.38
2023-02-13T18:49:49.215Z,8.65
2023-02-13T18:53:51.508Z,17.63
2023-02-13T18:57:53.613Z,18.52
2023-02-13T19:01:55.675Z,13.55
2023-02-13T19:05:58.960Z,12.90
2023-02-13T19:10:01.114Z,11.57
2023-02-13T19:14:03.243Z,11.30
2023-02-13T19:18:05.378Z,9.57
2023-02-13T19:22:07.402Z,10.43
2023-02-13T19:26:12.272Z,11.77
2023-02-13T19:30:14.529Z,13.15
2023-02-13T19:34:16.618Z,13.00
2023-02-13T19:38:19.377Z,13.60
2023-02-13T19:42:21.380Z,17.95
2023-02-13T19:46:28.781Z,12.93
2023-02-13T19:50:30.857Z,13.05
2023-02-13T19:54:34.028Z,11.73
2023-02-13T19:58:40.091Z,16.40
2023-02-13T20:02:42.198Z,17.55
2023-02-13T20:06:44.312Z,17.13
2023-02-13T20:10:46.326Z,17.77
2023-02-13T20:14:48.378Z,17.33
2023-02-13T20:18:50.609Z,16.45
2023-02-13T20:22:52.622Z,14.32
2023-02-13T20:26:56.434Z,14.23
2023-02-13T20:30:59.091Z,18.60
2023-02-13T20:35:01.331Z,15.82
2023-02-13T20:39:05.731Z,13.35
2023-02-13T20:43:07.762Z,13.38
2023-02-13T20:47:10.335Z,11.45
2023-02-13T20:51:14.679Z,9.63
2023-02-13T20:55:16.888Z,10.05
2023-02-13T20:59:19.007Z,9.48
2023-02-13T21:03:21.055Z,9.23
2023-02-13T21:07:23.686Z,10.95
2023-02-13T21:11:26.391Z,8.90
2023-02-13T21:15:28.384Z,11.23
2023-02-13T21:19:31.272Z,14.65
2023-02-13T21:23:33.662Z,12.63
2023-02-13T21:27:35.690Z,13.05
2023-02-13T21:31:44.146Z,13.55
2023-02-13T21:35:46.235Z,13.52
2023-02-13T21:39:48.262Z,21.85
2023-02-13T21:43:51.006Z,20.85
2023-02-13T21:47:56.655Z,16.25
2023-02-13T21:51:58.715Z,24.17
2023-02-13T21:56:03.068Z,23.45
2023-02-13T22:00:09.595Z,28.90
2023-02-13T22:04:14.440Z,31.17
2023-02-13T22:08:16.540Z,24.58
2023-02-13T22:12:18.537Z,24.75
2023-02-13T22:16:20.567Z,21.10
2023-02-13T22:20:22.766Z,27.98
2023-02-13T22:24:24.923Z,22.23
2023-02-13T22:28:27.541Z,18.50
2023-02-13T22:32:29.546Z,17.15
2023-02-13T22:36:33.583Z,17.75
2023-02-13T22:40:36.763Z,18.77
2023-02-13T22:44:38.772Z,16.77
2023-02-13T22:48:42.150Z,23.48
2023-02-13T22:52:44.201Z,18.20
2023-02-13T22:56:46.298Z,16.83
2023-02-13T23:00:48.328Z,19.80
2023-02-13T23:04:50.432Z,18.63
2023-02-13T23:08:53.578Z,18.15
2023-02-13T23:12:55.753Z,21.30
2023-02-13T23:17:16.433Z,21.08
2023-02-13T23:21:19.107Z,22.85
2023-02-13T23:25:21.646Z,22.50
2023-02-13T23:29:24.024Z,23.25
2023-02-13T23:33:26.365Z,24.33
2023-02-13T23:37:28.513Z,23.35
2023-02-13T23:41:30.562Z,23.90
2023-02-13T23:45:32.577Z,24.15
2023-02-13T23:49:34.676Z,25.13
2023-02-13T23:53:37.329Z,25.75
2023-02-13T23:57:39.408Z,28.23
